Brooklyn, Wisconsin
Current Conditions -  °F | °C
As of 2:55 PM on Saturday 22 Nov 2014 (Local Time) from KEFT Reporting Station
Haze Haze  
Wind Chill: 39°   Ceiling: 200
Heat Index: 45°   Visibility: 1.7mi
Dew Point: 45°   Wind: 12mph
Humidity: 100%   Direction: 230°SW
Pressure: 29.8"   Gusts: NA
Location:  42.85°N, 89.37°W
Report Text: KEFT 222055Z AUTO 23010KT 1 3/4SM BR OVC002 07/07 A2980 RMK AO2
Loading
Personal Weather Stations






























Interactive Weather Map New forecast layout! Learn more

10-Day Weather Forecast

Advertisements
Track Severe Weather on mobile